首页
METAR-TAF:

METAR-TAF

机场 :

约翰内斯堡, 南非共和國

纬度: 26-09S, 经度: 28-00E, 海拔: 1626米

当前天气观测

该预报发布于54分钟前的09:00 UTC
风速2节,风向
温度 20°C
湿度 15%
气压 1024 hPa

METAR: FAJB 200900Z AUTO 36002KT //// // ////// 20/M07 Q1024

时间: 11:54 (09:54 UTC)


TAF: 丢失

超过4000个机场的气象观测和天气预报(METAR&TAF报告)。

可查询的气象台以黄色和红色小点在地图上表示。

将鼠标移到小点上方,可查看气象台名称。

然后点击查看天气观测和预报。

如需切换地图:点击带黑十字的绿色按钮放大地图;点击带横线的绿色按钮缩小地图;或者点击绿色箭头查看邻近地区的地图。


METAR-TAF: